createdAt,value
2018-07-10T00:02:20.505Z,56.56
2018-07-10T00:04:59.914Z,56.16
2018-07-10T00:07:38.773Z,56.15
2018-07-10T00:12:13.726Z,56.48
2018-07-10T00:14:41.401Z,57.73
2018-07-10T00:17:09.154Z,56.84
2018-07-10T00:19:36.815Z,56.43
2018-07-10T00:22:04.574Z,57.25
2018-07-10T00:24:32.235Z,58.44
2018-07-10T00:27:00.102Z,57.26
2018-07-10T00:29:27.817Z,58.48
2018-07-10T00:31:55.558Z,59.41
2018-07-10T00:34:23.365Z,60.11
2018-07-10T00:36:51.058Z,60.28
2018-07-10T00:39:18.818Z,58.73
2018-07-10T00:41:46.594Z,57.96
2018-07-10T00:44:14.312Z,58.33
2018-07-10T00:46:41.971Z,60.36
2018-07-10T00:49:09.674Z,60.36
2018-07-10T00:51:38.988Z,59.41
2018-07-10T00:54:07.028Z,60.53
2018-07-10T00:56:34.929Z,61.29
2018-07-10T00:59:05.543Z,59.87
2018-07-10T01:01:33.626Z,60.29
2018-07-10T01:04:01.438Z,58.94
2018-07-10T01:06:29.142Z,60.79
2018-07-10T01:08:56.890Z,60.38
2018-07-10T01:11:24.625Z,61.18
2018-07-10T01:13:52.461Z,60.96
2018-07-10T01:16:23.880Z,61.11
2018-07-10T01:18:55.603Z,62.61
2018-07-10T01:21:23.874Z,63.21
2018-07-10T01:23:57.844Z,63.25
2018-07-10T01:26:26.537Z,63.16
2018-07-10T01:28:55.246Z,63.97
2018-07-10T01:31:23.078Z,64.21
2018-07-10T01:33:50.891Z,64.23
2018-07-10T01:36:18.706Z,64.73
2018-07-10T01:38:46.527Z,64.33
2018-07-10T01:41:14.354Z,64.45
2018-07-10T01:43:42.226Z,64.81
2018-07-10T01:46:10.030Z,64.72
2018-07-10T01:48:38.977Z,64.63
2018-07-10T01:51:06.884Z,64.64
2018-07-10T01:53:34.670Z,64.39
2018-07-10T01:56:02.400Z,64.46
2018-07-10T01:58:30.658Z,64.45
2018-07-10T02:00:58.401Z,63.84
2018-07-10T02:03:27.190Z,63.89
2018-07-10T02:05:55.004Z,63.39
2018-07-10T02:08:22.805Z,63.81
2018-07-10T02:10:50.488Z,64.05
2018-07-10T02:13:18.661Z,63.79
2018-07-10T02:15:46.498Z,64.06
2018-07-10T02:18:14.320Z,63.85
2018-07-10T02:20:59.537Z,64.06
2018-07-10T02:23:32.022Z,63.89
2018-07-10T02:25:59.847Z,63.80
2018-07-10T02:28:27.627Z,63.97
2018-07-10T02:30:55.390Z,63.73
2018-07-10T02:33:23.138Z,62.64
2018-07-10T02:35:50.974Z,63.17
2018-07-10T02:38:18.846Z,63.08
2018-07-10T02:40:47.406Z,63.33
2018-07-10T02:43:15.516Z,63.24
2018-07-10T02:45:43.918Z,62.57
2018-07-10T02:48:11.730Z,62.79
2018-07-10T02:50:39.645Z,62.59
2018-07-10T02:53:08.262Z,61.75
2018-07-10T02:55:36.097Z,61.06
2018-07-10T02:58:03.927Z,60.24
2018-07-10T03:00:31.747Z,60.03
2018-07-10T03:03:00.981Z,59.42
2018-07-10T03:05:28.803Z,59.42
2018-07-10T03:07:56.585Z,59.42
2018-07-10T03:10:24.475Z,59.67
2018-07-10T03:12:52.293Z,60.05
2018-07-10T03:15:20.154Z,60.27
2018-07-10T03:17:48.257Z,60.23
2018-07-10T03:20:16.100Z,60.36
2018-07-10T03:22:43.854Z,60.30
2018-07-10T03:25:11.760Z,60.60
2018-07-10T03:27:39.545Z,60.11
2018-07-10T03:30:07.245Z,59.50
2018-07-10T03:32:35.009Z,59.30
2018-07-10T03:35:02.812Z,59.55
2018-07-10T03:37:30.580Z,59.75
2018-07-10T03:39:58.334Z,59.84
2018-07-10T03:42:26.909Z,59.66
2018-07-10T03:44:54.969Z,58.99
2018-07-10T03:47:25.744Z,58.64
2018-07-10T03:49:53.551Z,58.64
2018-07-10T03:52:33.631Z,58.70
2018-07-10T03:55:07.625Z,59.06
2018-07-10T03:57:35.680Z,59.11
2018-07-10T04:00:06.639Z,58.50
2018-07-10T04:02:34.470Z,57.00
2018-07-10T04:05:03.460Z,55.83
2018-07-10T04:07:32.045Z,55.40
2018-07-10T04:09:59.850Z,55.16
2018-07-10T04:12:32.906Z,54.83
2018-07-10T04:15:01.258Z,54.46
2018-07-10T04:17:37.387Z,53.15
2018-07-10T04:20:05.218Z,52.28
2018-07-10T04:22:33.361Z,51.42
2018-07-10T04:25:01.526Z,50.92
2018-07-10T04:27:32.393Z,50.27
2018-07-10T04:30:10.481Z,49.89
2018-07-10T04:32:39.461Z,49.43
2018-07-10T04:35:07.839Z,49.49
2018-07-10T04:37:37.474Z,49.11
2018-07-10T04:40:05.298Z,48.17
2018-07-10T04:42:52.674Z,46.98
2018-07-10T04:45:20.960Z,46.63
2018-07-10T04:47:50.210Z,46.91
2018-07-10T04:50:27.368Z,47.15
2018-07-10T04:53:04.600Z,46.20
2018-07-10T04:55:35.203Z,45.68
2018-07-10T04:58:18.787Z,46.60
2018-07-10T05:00:54.958Z,46.49
2018-07-10T05:03:23.220Z,45.94
2018-07-10T05:05:51.097Z,45.36
2018-07-10T05:08:20.099Z,45.90
2018-07-10T05:10:48.797Z,45.92
2018-07-10T05:13:16.791Z,45.84
2018-07-10T05:15:49.433Z,45.57
2018-07-10T05:18:17.285Z,44.00
2018-07-10T05:20:45.243Z,44.82
2018-07-10T05:23:13.958Z,45.44
2018-07-10T05:25:44.530Z,45.80
2018-07-10T05:28:12.365Z,45.09
2018-07-10T05:30:42.471Z,45.33
2018-07-10T05:33:12.200Z,45.15
2018-07-10T05:35:40.113Z,45.16
2018-07-10T05:38:07.954Z,45.30
2018-07-10T05:40:35.784Z,45.92
2018-07-10T05:43:08.534Z,45.59
2018-07-10T05:45:36.384Z,45.05
2018-07-10T05:48:04.178Z,45.21
2018-07-10T05:50:34.962Z,44.73
2018-07-10T05:53:04.211Z,45.19
2018-07-10T05:55:32.323Z,45.10
2018-07-10T05:58:01.028Z,44.61
2018-07-10T06:00:30.158Z,44.76
2018-07-10T06:02:57.953Z,45.07
2018-07-10T06:05:26.854Z,45.23
2018-07-10T06:07:54.746Z,45.47
2018-07-10T06:10:23.934Z,45.61
2018-07-10T06:12:51.867Z,45.42
2018-07-10T06:15:19.644Z,45.55
2018-07-10T06:17:47.766Z,45.83
2018-07-10T06:20:15.602Z,45.15
2018-07-10T06:22:43.538Z,44.83
2018-07-10T06:25:11.296Z,44.91
2018-07-10T06:27:46.827Z,45.04
2018-07-10T06:30:14.767Z,45.14
2018-07-10T06:32:51.268Z,45.47
2018-07-10T06:35:28.674Z,45.20
2018-07-10T06:37:56.877Z,45.32
2018-07-10T06:40:24.718Z,45.46
2018-07-10T06:42:58.381Z,45.78
2018-07-10T06:45:26.206Z,46.19
2018-07-10T06:47:54.013Z,45.54
2018-07-10T06:50:22.243Z,45.64
2018-07-10T06:52:52.288Z,45.55
2018-07-10T06:55:20.436Z,45.29
2018-07-10T06:57:51.989Z,45.02
2018-07-10T07:00:19.777Z,44.97
2018-07-10T07:02:47.666Z,45.29
2018-07-10T07:05:15.438Z,45.38
2018-07-10T07:07:43.239Z,45.55
2018-07-10T07:10:12.062Z,45.63
2018-07-10T07:12:40.401Z,45.16
2018-07-10T07:15:10.666Z,44.58
2018-07-10T07:17:41.590Z,44.59
2018-07-10T07:20:09.783Z,44.46
2018-07-10T07:22:37.574Z,44.42
2018-07-10T07:25:05.318Z,44.32
2018-07-10T07:27:33.152Z,43.89
2018-07-10T07:30:01.590Z,43.83
2018-07-10T07:32:29.833Z,43.78
2018-07-10T07:34:57.597Z,43.60
2018-07-10T07:37:25.886Z,43.78
2018-07-10T07:39:54.489Z,43.65
2018-07-10T07:42:22.309Z,42.76
2018-07-10T07:44:51.732Z,43.37
2018-07-10T07:47:22.843Z,42.81
2018-07-10T07:49:51.305Z,42.42
2018-07-10T07:52:19.069Z,43.14
2018-07-10T07:54:46.834Z,43.27
2018-07-10T07:57:15.350Z,42.43
2018-07-10T07:59:43.310Z,41.82
2018-07-10T08:02:11.127Z,42.06
2018-07-10T08:04:38.923Z,43.14
2018-07-10T08:07:06.645Z,42.12
2018-07-10T08:09:34.397Z,42.12
2018-07-10T08:12:02.308Z,42.08
2018-07-10T08:14:30.074Z,42.50
2018-07-10T08:16:57.884Z,40.66
2018-07-10T08:19:26.198Z,41.03
2018-07-10T08:21:54.035Z,40.59
2018-07-10T08:24:23.393Z,41.20
2018-07-10T08:26:56.244Z,41.25
2018-07-10T08:29:24.829Z,41.33
2018-07-10T08:31:53.260Z,42.01
2018-07-10T08:34:21.489Z,42.54
2018-07-10T08:36:49.269Z,40.97
2018-07-10T08:39:18.149Z,40.38
2018-07-10T08:41:47.071Z,40.18
2018-07-10T08:44:15.890Z,40.03
2018-07-10T08:46:46.281Z,39.40
2018-07-10T08:49:14.110Z,39.82
2018-07-10T08:51:41.978Z,40.54
2018-07-10T08:54:10.091Z,40.09
2018-07-10T08:56:37.885Z,40.67
2018-07-10T08:59:05.650Z,41.20
2018-07-10T09:01:33.511Z,41.19
2018-07-10T09:04:01.343Z,41.36
2018-07-10T09:06:29.205Z,41.75
2018-07-10T09:08:56.954Z,41.81
2018-07-10T09:11:24.760Z,41.31
2018-07-10T09:13:52.688Z,41.79
2018-07-10T09:16:20.384Z,41.58
2018-07-10T09:18:48.174Z,41.02
2018-07-10T09:21:16.205Z,41.23
2018-07-10T09:23:44.014Z,41.31
2018-07-10T09:26:11.856Z,41.64
2018-07-10T09:28:39.683Z,41.70
2018-07-10T09:31:07.557Z,41.14
2018-07-10T09:33:35.976Z,41.11
2018-07-10T09:36:04.564Z,41.43
2018-07-10T09:38:33.618Z,41.64
2018-07-10T09:41:02.118Z,41.74
2018-07-10T09:43:29.981Z,41.90
2018-07-10T09:45:58.657Z,41.58
2018-07-10T09:48:26.386Z,41.50
2018-07-10T09:50:54.214Z,41.83
2018-07-10T09:53:23.014Z,42.08
2018-07-10T09:55:50.837Z,41.71
2018-07-10T09:58:20.230Z,41.78
2018-07-10T10:00:54.381Z,41.71
2018-07-10T10:03:23.177Z,41.76
2018-07-10T10:05:51.013Z,42.09
2018-07-10T10:08:18.773Z,41.96
2018-07-10T10:10:46.532Z,41.99
2018-07-10T10:13:14.380Z,42.02
2018-07-10T10:15:42.571Z,41.44
2018-07-10T10:18:10.408Z,41.75
2018-07-10T10:20:40.108Z,41.80
2018-07-10T10:23:08.959Z,41.74
2018-07-10T10:25:38.937Z,41.66
2018-07-10T10:28:08.445Z,41.81
2018-07-10T10:30:37.419Z,42.16
2018-07-10T10:33:20.402Z,42.45
2018-07-10T10:35:48.326Z,42.23
2018-07-10T10:38:17.063Z,42.40
2018-07-10T10:40:46.866Z,42.48
2018-07-10T10:43:14.690Z,42.51
2018-07-10T10:45:43.555Z,42.52
2018-07-10T10:48:12.898Z,41.99
2018-07-10T10:50:43.263Z,42.08
2018-07-10T10:53:11.102Z,42.50
2018-07-10T10:55:38.933Z,42.05
2018-07-10T10:58:06.764Z,42.70
2018-07-10T11:00:34.604Z,42.52
2018-07-10T11:03:02.406Z,42.46
2018-07-10T11:05:30.645Z,42.59
2018-07-10T11:07:59.553Z,42.28
2018-07-10T11:10:27.393Z,42.36
2018-07-10T11:12:55.973Z,42.05
2018-07-10T11:15:23.877Z,41.54
2018-07-10T11:18:07.709Z,41.26
2018-07-10T11:22:47.443Z,41.68
2018-07-10T11:25:15.359Z,41.37
2018-07-10T11:27:59.527Z,41.18
2018-07-10T11:30:27.741Z,40.99
2018-07-10T11:32:55.554Z,41.16
2018-07-10T11:35:23.730Z,41.63
2018-07-10T11:37:51.632Z,41.28
2018-07-10T11:40:19.491Z,41.02
2018-07-10T11:42:47.256Z,40.97
2018-07-10T11:45:15.067Z,40.83
2018-07-10T11:47:42.862Z,40.91
2018-07-10T11:50:10.772Z,41.18
2018-07-10T11:52:38.917Z,40.54
2018-07-10T11:55:07.214Z,40.70
2018-07-10T11:57:35.025Z,40.76
2018-07-10T12:00:02.875Z,40.74
2018-07-10T12:02:41.349Z,40.70
2018-07-10T12:05:09.138Z,40.78
2018-07-10T12:07:37.590Z,40.55
2018-07-10T12:10:17.247Z,40.51
2018-07-10T12:12:45.445Z,40.12
2018-07-10T12:15:13.620Z,40.57
2018-07-10T12:17:41.447Z,40.11
2018-07-10T12:20:10.414Z,39.75
2018-07-10T12:22:38.890Z,39.60
2018-07-10T12:25:07.158Z,39.70
2018-07-10T12:27:34.991Z,38.86
2018-07-10T12:30:04.514Z,39.64
2018-07-10T12:32:32.333Z,39.13
2018-07-10T12:35:00.138Z,39.03
2018-07-10T12:37:27.966Z,38.99
2018-07-10T12:39:55.736Z,38.66
2018-07-10T12:42:23.540Z,38.57
2018-07-10T12:44:51.323Z,38.63
2018-07-10T12:47:19.167Z,38.81
2018-07-10T12:49:46.997Z,38.65
2018-07-10T12:52:14.717Z,38.73
2018-07-10T12:54:42.533Z,39.03
2018-07-10T12:57:11.560Z,38.63
2018-07-10T12:59:39.371Z,38.83
2018-07-10T13:02:07.230Z,38.82
2018-07-10T13:04:35.095Z,39.20
2018-07-10T13:07:02.868Z,39.09
2018-07-10T13:09:30.704Z,38.81
2018-07-10T13:11:58.602Z,39.22
2018-07-10T13:14:26.390Z,38.67
2018-07-10T13:16:54.195Z,38.27
2018-07-10T13:19:22.027Z,38.35
2018-07-10T13:21:49.874Z,38.94
2018-07-10T13:24:17.677Z,38.65
2018-07-10T13:26:45.512Z,37.97
2018-07-10T13:29:13.335Z,38.24
2018-07-10T13:31:41.161Z,38.50
2018-07-10T13:34:08.977Z,38.33
2018-07-10T13:36:36.771Z,38.42
2018-07-10T13:39:05.916Z,38.60
2018-07-10T13:41:33.765Z,38.66
2018-07-10T13:44:01.616Z,38.37
2018-07-10T13:46:29.327Z,38.46
2018-07-10T13:48:57.199Z,38.79
2018-07-10T13:51:25.015Z,39.04
2018-07-10T13:53:52.849Z,39.23
2018-07-10T13:56:20.649Z,38.87
2018-07-10T13:58:48.852Z,38.85
2018-07-10T14:01:16.662Z,39.07
2018-07-10T14:03:44.434Z,39.03
2018-07-10T14:06:12.168Z,39.18
2018-07-10T14:08:39.878Z,38.95
2018-07-10T14:11:07.646Z,39.26
2018-07-10T14:13:35.455Z,38.71
2018-07-10T14:16:03.583Z,39.02
2018-07-10T14:18:32.209Z,38.58
2018-07-10T14:21:05.715Z,38.47
2018-07-10T14:23:33.696Z,38.00
2018-07-10T14:26:01.586Z,38.32
2018-07-10T14:28:29.424Z,37.85
2018-07-10T14:30:57.504Z,36.51
2018-07-10T14:33:25.272Z,37.66
2018-07-10T14:35:53.097Z,37.53
2018-07-10T14:38:25.242Z,37.00
2018-07-10T14:40:57.334Z,37.45
2018-07-10T14:43:30.400Z,36.70
2018-07-10T14:46:05.797Z,36.96
2018-07-10T14:48:35.210Z,37.38
2018-07-10T14:51:03.592Z,37.61
2018-07-10T14:53:31.433Z,37.28
2018-07-10T14:55:59.246Z,35.90
2018-07-10T14:58:27.006Z,36.22
2018-07-10T15:00:55.078Z,36.30
2018-07-10T15:03:22.788Z,36.25
2018-07-10T15:05:50.530Z,35.63
2018-07-10T15:08:18.405Z,35.81
2018-07-10T15:10:46.301Z,36.27
2018-07-10T15:13:14.034Z,35.91
2018-07-10T15:15:41.879Z,36.17
2018-07-10T15:18:15.497Z,36.10
2018-07-10T15:20:43.423Z,35.86
2018-07-10T15:23:11.235Z,35.23
2018-07-10T15:25:38.991Z,35.34
2018-07-10T15:28:06.687Z,35.92
2018-07-10T15:30:34.452Z,35.34
2018-07-10T15:33:02.257Z,35.39
2018-07-10T15:35:30.040Z,35.00
2018-07-10T15:37:57.864Z,34.65
2018-07-10T15:40:25.690Z,34.45
2018-07-10T15:42:53.478Z,34.97
2018-07-10T15:45:21.253Z,34.11
2018-07-10T15:47:49.030Z,34.56
2018-07-10T15:50:16.806Z,34.28
2018-07-10T15:52:44.579Z,34.55
2018-07-10T15:55:12.389Z,35.08
2018-07-10T15:57:40.108Z,34.69
2018-07-10T16:00:07.806Z,35.00
2018-07-10T16:02:35.599Z,34.44
2018-07-10T16:05:03.433Z,34.88
2018-07-10T16:07:31.272Z,33.91
2018-07-10T16:09:59.113Z,34.62
2018-07-10T16:12:26.892Z,33.83
2018-07-10T16:14:54.724Z,34.70
2018-07-10T16:17:25.572Z,34.54
2018-07-10T16:20:01.525Z,34.84
2018-07-10T16:22:29.355Z,34.64
2018-07-10T16:25:06.241Z,34.56
2018-07-10T16:27:44.052Z,34.82
2018-07-10T16:30:14.302Z,34.40
2018-07-10T16:32:42.366Z,34.44
2018-07-10T16:35:11.079Z,34.00
2018-07-10T16:37:38.905Z,34.26
2018-07-10T16:40:07.905Z,33.89
2018-07-10T16:42:42.208Z,33.77
2018-07-10T16:45:13.526Z,34.18
2018-07-10T16:47:48.815Z,33.37
2018-07-10T16:50:16.951Z,34.19
2018-07-10T16:52:48.309Z,33.85
2018-07-10T16:55:16.157Z,33.44
2018-07-10T16:57:43.965Z,34.21
2018-07-10T17:00:11.716Z,34.10
2018-07-10T17:02:39.617Z,33.46
2018-07-10T17:05:07.445Z,33.56
2018-07-10T17:07:35.257Z,34.00
2018-07-10T17:10:03.159Z,34.42
2018-07-10T17:12:30.985Z,34.39
2018-07-10T17:15:00.064Z,33.62
2018-07-10T17:17:28.075Z,34.30
2018-07-10T17:19:56.185Z,33.82
2018-07-10T17:22:24.561Z,34.45
2018-07-10T17:24:53.153Z,33.53
2018-07-10T17:27:26.081Z,34.32
2018-07-10T17:29:53.887Z,33.64
2018-07-10T17:32:21.785Z,33.93
2018-07-10T17:34:49.600Z,35.01
2018-07-10T17:37:17.410Z,33.76
2018-07-10T17:39:45.236Z,34.31
2018-07-10T17:42:13.090Z,33.80
2018-07-10T17:44:40.905Z,34.59
2018-07-10T17:47:08.753Z,34.00
2018-07-10T17:49:36.687Z,34.54
2018-07-10T17:52:04.727Z,34.42
2018-07-10T17:54:32.593Z,34.38
2018-07-10T17:57:00.738Z,34.26
2018-07-10T17:59:28.548Z,34.45
2018-07-10T18:01:56.386Z,34.79
2018-07-10T18:04:24.158Z,34.79
2018-07-10T18:06:51.978Z,34.25
2018-07-10T18:09:19.789Z,34.91
2018-07-10T18:11:47.655Z,34.96
2018-07-10T18:14:15.489Z,34.72
2018-07-10T18:16:43.330Z,34.29
2018-07-10T18:19:11.211Z,35.06
2018-07-10T18:21:39.172Z,35.59
2018-07-10T18:24:06.934Z,35.63
2018-07-10T18:26:34.752Z,35.98
2018-07-10T18:29:02.694Z,36.43
2018-07-10T18:31:30.497Z,36.58
2018-07-10T18:33:58.238Z,36.55
2018-07-10T18:36:26.082Z,36.71
2018-07-10T18:38:53.925Z,36.89
2018-07-10T18:41:21.753Z,36.61
2018-07-10T18:43:49.532Z,36.67
2018-07-10T18:46:17.353Z,37.00
2018-07-10T18:48:45.250Z,37.87
2018-07-10T18:51:13.054Z,37.99
2018-07-10T18:53:41.453Z,38.41
2018-07-10T18:56:09.577Z,38.93
2018-07-10T18:59:13.624Z,39.72
2018-07-10T19:01:51.385Z,39.56
2018-07-10T19:04:22.655Z,38.99
2018-07-10T19:06:50.489Z,39.38
2018-07-10T19:09:28.841Z,38.84
2018-07-10T19:11:56.683Z,38.54
2018-07-10T19:14:24.925Z,38.35
2018-07-10T19:16:52.762Z,39.00
2018-07-10T19:19:20.718Z,39.32
2018-07-10T19:21:53.334Z,38.83
2018-07-10T19:24:22.603Z,38.64
2018-07-10T19:26:50.507Z,38.57
2018-07-10T19:29:28.639Z,39.03
2018-07-10T19:31:56.453Z,39.36
2018-07-10T19:34:24.267Z,39.06
2018-07-10T19:36:52.124Z,40.03
2018-07-10T19:39:19.926Z,39.87
2018-07-10T19:41:47.757Z,39.56
2018-07-10T19:44:18.702Z,40.28
2018-07-10T19:46:46.531Z,39.66
2018-07-10T19:49:16.431Z,39.50
2018-07-10T19:51:44.262Z,39.96
2018-07-10T19:54:14.136Z,40.18
2018-07-10T19:56:42.005Z,39.23
2018-07-10T19:59:12.876Z,39.23
2018-07-10T20:02:03.483Z,39.00
2018-07-10T20:04:40.954Z,39.52
2018-07-10T20:07:23.985Z,39.15
2018-07-10T20:10:00.030Z,39.68
2018-07-10T20:12:33.334Z,39.90
2018-07-10T20:16:09.022Z,40.35
2018-07-10T20:19:45.963Z,40.60
2018-07-10T20:22:50.423Z,40.48
2018-07-10T20:25:32.325Z,40.06
2018-07-10T20:28:12.362Z,40.33
2018-07-10T20:30:53.127Z,40.75
2018-07-10T20:33:31.474Z,40.89
2018-07-10T20:36:03.615Z,41.14
2018-07-10T20:38:31.410Z,41.25
2018-07-10T20:41:01.890Z,40.73
2018-07-10T20:43:29.762Z,40.74
2018-07-10T20:45:57.698Z,40.27
2018-07-10T20:48:35.602Z,40.01
2018-07-10T20:51:05.757Z,39.74
2018-07-10T20:53:41.748Z,40.26
2018-07-10T20:56:24.221Z,40.55
2018-07-10T20:58:57.781Z,40.71
2018-07-10T21:01:29.257Z,40.50
2018-07-10T21:03:59.687Z,40.27
2018-07-10T21:06:43.532Z,40.03
2018-07-10T21:09:12.849Z,40.18
2018-07-10T21:12:10.096Z,40.01
2018-07-10T21:14:48.371Z,40.98
2018-07-10T21:17:17.599Z,40.83
2018-07-10T21:20:25.794Z,41.75
2018-07-10T21:23:17.486Z,41.91
2018-07-10T21:25:51.736Z,41.76
2018-07-10T21:28:40.090Z,42.20
2018-07-10T21:31:16.932Z,41.97
2018-07-10T21:34:00.534Z,41.56
2018-07-10T21:37:34.030Z,41.75
2018-07-10T21:42:43.475Z,42.06
2018-07-10T21:47:30.708Z,43.01
2018-07-10T21:50:00.334Z,42.43
2018-07-10T21:52:28.290Z,42.86
2018-07-10T21:54:56.070Z,43.35
2018-07-10T21:57:25.359Z,42.76
2018-07-10T21:59:55.658Z,43.60
2018-07-10T22:02:23.623Z,43.50
2018-07-10T22:04:53.821Z,43.04
2018-07-10T22:07:22.907Z,42.89
2018-07-10T22:09:52.332Z,43.37
2018-07-10T22:12:20.781Z,43.29
2018-07-10T22:14:48.586Z,43.16
2018-07-10T22:17:23.386Z,44.08
2018-07-10T22:19:52.287Z,43.75
2018-07-10T22:22:35.270Z,43.78
2018-07-10T22:25:04.737Z,43.54
2018-07-10T22:27:32.522Z,43.47
2018-07-10T22:30:06.106Z,43.61
2018-07-10T22:32:43.082Z,43.02
2018-07-10T22:35:10.946Z,43.28
2018-07-10T22:37:38.929Z,43.44
2018-07-10T22:40:07.850Z,44.13
2018-07-10T22:42:35.666Z,43.40
2018-07-10T22:45:03.498Z,43.13
2018-07-10T22:47:36.817Z,43.24
2018-07-10T22:50:22.027Z,43.08
2018-07-10T22:52:52.348Z,44.31
2018-07-10T22:55:22.897Z,45.75
2018-07-10T22:57:51.375Z,45.33
2018-07-10T23:00:29.206Z,44.80
2018-07-10T23:02:56.902Z,45.07
2018-07-10T23:05:24.879Z,44.68
2018-07-10T23:07:52.714Z,44.72
2018-07-10T23:10:20.545Z,45.98
2018-07-10T23:12:48.366Z,45.92
2018-07-10T23:15:16.274Z,46.18
2018-07-10T23:17:44.048Z,46.73
2018-07-10T23:20:11.838Z,46.79
2018-07-10T23:22:51.610Z,47.46
2018-07-10T23:25:20.322Z,46.45
2018-07-10T23:27:48.159Z,46.70
2018-07-10T23:30:16.001Z,46.77
2018-07-10T23:32:43.786Z,46.40
2018-07-10T23:35:11.988Z,46.58
2018-07-10T23:37:44.717Z,46.44
2018-07-10T23:40:12.552Z,46.44
2018-07-10T23:42:41.230Z,47.82
2018-07-10T23:45:13.134Z,47.57
2018-07-10T23:47:40.972Z,46.73
2018-07-10T23:50:17.398Z,48.08
2018-07-10T23:53:24.233Z,47.87
2018-07-10T23:55:51.933Z,47.18
2018-07-10T23:58:19.737Z,46.65
